createdAt,value
2018-05-14T00:01:58.061Z,14.30
2018-05-14T00:04:24.157Z,14.20
2018-05-14T00:06:50.282Z,14.30
2018-05-14T00:09:16.446Z,14.30
2018-05-14T00:11:42.546Z,14.30
2018-05-14T00:14:08.671Z,14.30
2018-05-14T00:16:34.760Z,14.30
2018-05-14T00:19:00.860Z,14.30
2018-05-14T00:21:26.957Z,14.30
2018-05-14T00:23:53.843Z,14.20
2018-05-14T00:26:19.976Z,14.20
2018-05-14T00:28:46.057Z,14.20
2018-05-14T00:31:12.153Z,14.20
2018-05-14T00:33:38.275Z,14.20
2018-05-14T00:36:04.363Z,14.20
2018-05-14T00:38:30.455Z,14.10
2018-05-14T00:40:56.562Z,14.10
2018-05-14T00:43:22.723Z,14.10
2018-05-14T00:45:48.793Z,14.10
2018-05-14T00:48:14.893Z,14.10
2018-05-14T00:50:40.965Z,14.10
2018-05-14T00:53:07.136Z,14.00
2018-05-14T00:55:33.217Z,14.00
2018-05-14T00:57:59.301Z,14.10
2018-05-14T01:00:25.461Z,14.00
2018-05-14T01:02:51.571Z,14.00
2018-05-14T01:05:17.687Z,14.00
2018-05-14T01:07:43.851Z,14.00
2018-05-14T01:10:09.958Z,13.90
2018-05-14T01:12:36.041Z,13.90
2018-05-14T01:15:02.130Z,13.90
2018-05-14T01:17:28.319Z,14.00
2018-05-14T01:19:54.419Z,14.00
2018-05-14T01:22:20.511Z,13.90
2018-05-14T01:24:52.749Z,13.90
2018-05-14T01:27:18.881Z,13.90
2018-05-14T01:29:44.966Z,14.00
2018-05-14T01:32:11.109Z,14.00
2018-05-14T01:34:37.231Z,14.00
2018-05-14T01:37:03.374Z,13.90
2018-05-14T01:39:29.493Z,14.00
2018-05-14T01:41:55.598Z,14.00
2018-05-14T01:44:21.741Z,14.00
2018-05-14T01:46:47.869Z,14.00
2018-05-14T01:49:13.979Z,13.90
2018-05-14T01:51:40.112Z,14.00
2018-05-14T01:54:06.213Z,14.00
2018-05-14T01:56:32.298Z,14.00
2018-05-14T01:58:58.433Z,14.00
2018-05-14T02:01:24.541Z,13.90
2018-05-14T02:03:50.665Z,13.90
2018-05-14T02:06:16.776Z,13.90
2018-05-14T02:08:42.893Z,13.90
2018-05-14T02:11:09.015Z,13.90
2018-05-14T02:13:35.134Z,13.90
2018-05-14T02:16:01.326Z,13.90
2018-05-14T02:18:27.435Z,13.90
2018-05-14T02:20:53.558Z,13.80
2018-05-14T02:23:19.649Z,13.80
2018-05-14T02:25:46.518Z,13.80
2018-05-14T02:28:12.619Z,13.80
2018-05-14T02:30:38.871Z,13.80
2018-05-14T02:33:05.737Z,13.80
2018-05-14T02:35:32.573Z,13.80
2018-05-14T02:37:58.693Z,13.80
2018-05-14T02:40:24.819Z,13.80
2018-05-14T02:42:50.925Z,13.80
2018-05-14T02:45:17.011Z,13.80
2018-05-14T02:47:43.233Z,13.70
2018-05-14T02:50:09.331Z,13.80
2018-05-14T02:52:35.427Z,13.70
2018-05-14T02:55:01.591Z,13.70
2018-05-14T02:57:27.689Z,13.70
2018-05-14T02:59:53.817Z,13.70
2018-05-14T03:02:20.062Z,13.70
2018-05-14T03:04:46.216Z,13.60
2018-05-14T03:07:12.293Z,13.70
2018-05-14T03:09:39.161Z,13.60
2018-05-14T03:12:05.997Z,13.60
2018-05-14T03:14:32.122Z,13.60
2018-05-14T03:16:58.279Z,13.60
2018-05-14T03:19:25.121Z,13.50
2018-05-14T03:21:51.250Z,13.40
2018-05-14T03:24:17.382Z,13.50
2018-05-14T03:26:43.494Z,13.40
2018-05-14T03:29:09.601Z,13.40
2018-05-14T03:31:36.462Z,13.40
2018-05-14T03:34:03.321Z,13.40
2018-05-14T03:36:30.146Z,13.40
2018-05-14T03:38:56.226Z,13.40
2018-05-14T03:41:22.321Z,13.40
2018-05-14T03:43:48.397Z,13.40
2018-05-14T03:46:14.454Z,13.50
2018-05-14T03:48:40.549Z,13.50
2018-05-14T03:51:07.359Z,13.40
2018-05-14T03:53:33.478Z,13.40
2018-05-14T03:55:59.608Z,13.40
2018-05-14T03:58:38.117Z,13.30
2018-05-14T04:01:13.973Z,13.30
2018-05-14T04:03:52.535Z,13.30
2018-05-14T04:06:26.616Z,13.30
2018-05-14T04:08:52.763Z,13.20
2018-05-14T04:11:18.842Z,13.30
2018-05-14T04:13:44.950Z,13.30
2018-05-14T04:16:11.789Z,13.30
2018-05-14T04:18:37.848Z,13.30
2018-05-14T04:21:03.927Z,13.30
2018-05-14T04:23:30.057Z,13.30
2018-05-14T04:25:56.154Z,13.40
2018-05-14T04:28:22.366Z,13.50
2018-05-14T04:30:48.503Z,13.50
2018-05-14T04:33:14.579Z,13.50
2018-05-14T04:35:41.425Z,13.50
2018-05-14T04:38:07.589Z,13.50
2018-05-14T04:40:34.427Z,13.60
2018-05-14T04:43:00.588Z,13.60
2018-05-14T04:45:26.693Z,13.60
2018-05-14T04:47:52.777Z,13.60
2018-05-14T04:50:18.857Z,13.70
2018-05-14T04:52:44.962Z,13.70
2018-05-14T04:55:11.034Z,13.70
2018-05-14T04:57:37.133Z,13.70
2018-05-14T05:00:03.198Z,13.70
2018-05-14T05:02:29.272Z,13.80
2018-05-14T05:04:55.362Z,13.80
2018-05-14T05:07:21.457Z,13.80
2018-05-14T05:09:48.269Z,13.80
2018-05-14T05:12:14.465Z,13.80
2018-05-14T05:14:40.569Z,13.90
2018-05-14T05:17:06.654Z,13.90
2018-05-14T05:19:33.451Z,14.00
2018-05-14T05:21:59.550Z,13.90
2018-05-14T05:24:25.621Z,14.10
2018-05-14T05:26:51.721Z,14.00
2018-05-14T05:29:17.855Z,14.10
2018-05-14T05:31:43.921Z,14.10
2018-05-14T05:34:10.027Z,14.20
2018-05-14T05:36:36.821Z,14.30
2018-05-14T05:39:02.948Z,14.30
2018-05-14T05:41:29.066Z,14.30
2018-05-14T05:43:55.869Z,14.30
2018-05-14T05:46:21.967Z,14.20
2018-05-14T05:48:48.058Z,14.30
2018-05-14T05:51:14.153Z,14.40
2018-05-14T05:53:40.311Z,14.40
2018-05-14T05:56:06.393Z,14.40
2018-05-14T05:58:32.449Z,14.40
2018-05-14T06:00:59.317Z,14.50
2018-05-14T06:03:25.394Z,14.50
2018-05-14T06:05:51.457Z,14.60
2018-05-14T06:08:17.552Z,14.60
2018-05-14T06:10:43.605Z,14.70
2018-05-14T06:13:10.478Z,14.90
2018-05-14T06:15:36.585Z,14.90
2018-05-14T06:18:02.681Z,14.80
2018-05-14T06:20:29.529Z,15.00
2018-05-14T06:22:55.602Z,15.00
2018-05-14T06:25:21.711Z,15.10
2018-05-14T06:27:48.605Z,15.20
2018-05-14T06:30:14.669Z,15.10
2018-05-14T06:32:40.777Z,15.30
2018-05-14T06:35:06.863Z,15.30
2018-05-14T06:37:32.990Z,15.40
2018-05-14T06:39:59.123Z,15.40
2018-05-14T06:42:25.205Z,15.40
2018-05-14T06:44:52.054Z,15.40
2018-05-14T06:47:18.878Z,15.40
2018-05-14T06:49:45.067Z,15.30
2018-05-14T06:52:11.181Z,15.40
2018-05-14T06:54:37.199Z,15.50
2018-05-14T06:57:03.315Z,15.50
2018-05-14T06:59:30.150Z,15.40
2018-05-14T07:01:56.262Z,15.30
2018-05-14T07:04:23.089Z,15.50
2018-05-14T07:06:49.190Z,15.50
2018-05-14T07:09:15.295Z,15.40
2018-05-14T07:11:42.122Z,15.30
2018-05-14T07:14:08.238Z,15.30
2018-05-14T07:16:34.365Z,15.40
2018-05-14T07:19:00.487Z,15.40
2018-05-14T07:21:26.570Z,15.60
2018-05-14T07:23:52.686Z,15.60
2018-05-14T07:26:18.786Z,15.60
2018-05-14T07:28:45.614Z,15.60
2018-05-14T07:31:11.737Z,15.60
2018-05-14T07:33:37.836Z,15.80
2018-05-14T07:36:03.931Z,16.00
2018-05-14T07:38:30.168Z,16.20
2018-05-14T07:40:56.134Z,16.40
2018-05-14T07:43:23.003Z,17.00
2018-05-14T07:45:49.090Z,16.90
2018-05-14T07:48:15.181Z,17.30
2018-05-14T07:50:41.233Z,17.40
2018-05-14T07:53:07.361Z,17.70
2018-05-14T07:55:33.429Z,17.70
2018-05-14T07:57:59.509Z,17.90
2018-05-14T08:00:26.338Z,18.40
2018-05-14T08:02:52.425Z,18.40
2018-05-14T08:05:18.482Z,18.60
2018-05-14T08:07:45.317Z,18.30
2018-05-14T08:10:11.385Z,18.30
2018-05-14T08:12:37.472Z,18.60
2018-05-14T08:15:04.313Z,18.50
2018-05-14T08:17:30.410Z,18.50
2018-05-14T08:19:56.502Z,18.50
2018-05-14T08:22:23.300Z,18.70
2018-05-14T08:24:49.390Z,18.60
2018-05-14T08:27:16.189Z,18.70
2018-05-14T08:29:42.288Z,18.70
2018-05-14T08:32:09.105Z,18.70
2018-05-14T08:34:35.164Z,18.70
2018-05-14T08:37:01.351Z,18.90
2018-05-14T08:39:27.365Z,18.90
2018-05-14T08:41:54.211Z,18.90
2018-05-14T08:44:21.037Z,18.80
2018-05-14T08:46:47.130Z,18.80
2018-05-14T08:49:13.193Z,19.00
2018-05-14T08:51:39.274Z,19.20
2018-05-14T08:54:05.346Z,19.30
2018-05-14T08:56:31.426Z,19.30
2018-05-14T08:58:57.517Z,19.50
2018-05-14T09:01:23.622Z,19.60
2018-05-14T09:03:49.690Z,19.80
2018-05-14T09:06:15.757Z,20.00
2018-05-14T09:08:41.850Z,20.10
2018-05-14T09:11:08.871Z,20.10
2018-05-14T09:13:34.783Z,20.00
2018-05-14T09:16:00.841Z,20.10
2018-05-14T09:18:26.933Z,20.10
2018-05-14T09:20:53.737Z,20.00
2018-05-14T09:23:19.815Z,20.00
2018-05-14T09:25:46.645Z,20.10
2018-05-14T09:28:14.187Z,20.20
2018-05-14T09:30:40.274Z,20.20
2018-05-14T09:33:06.366Z,20.20
2018-05-14T09:35:32.466Z,20.30
2018-05-14T09:37:59.319Z,20.40
2018-05-14T09:40:26.125Z,20.40
2018-05-14T09:42:52.209Z,20.40
2018-05-14T09:45:19.006Z,20.30
2018-05-14T09:47:45.089Z,20.30
2018-05-14T09:50:11.145Z,20.10
2018-05-14T09:52:37.946Z,20.50
2018-05-14T09:55:04.037Z,20.50
2018-05-14T09:57:30.089Z,20.80
2018-05-14T09:59:56.174Z,21.10
2018-05-14T10:02:22.229Z,21.30
2018-05-14T10:04:48.324Z,21.50
2018-05-14T10:07:14.377Z,21.80
2018-05-14T10:09:40.451Z,22.00
2018-05-14T10:12:07.310Z,21.80
2018-05-14T10:14:34.125Z,22.00
2018-05-14T10:17:00.201Z,21.90
2018-05-14T10:19:26.293Z,22.00
2018-05-14T10:21:52.407Z,22.10
2018-05-14T10:24:18.530Z,22.20
2018-05-14T10:26:45.376Z,21.80
2018-05-14T10:29:12.254Z,21.70
2018-05-14T10:31:38.341Z,21.70
2018-05-14T10:34:04.437Z,21.50
2018-05-14T10:36:30.554Z,21.50
2018-05-14T10:38:57.374Z,21.80
2018-05-14T10:41:23.481Z,21.80
2018-05-14T10:43:49.573Z,21.80
2018-05-14T10:46:15.710Z,21.70
2018-05-14T10:48:41.833Z,21.80
2018-05-14T10:51:07.978Z,21.80
2018-05-14T10:53:34.090Z,22.10
2018-05-14T10:56:00.229Z,22.30
2018-05-14T10:58:26.352Z,22.20
2018-05-14T11:00:52.441Z,22.20
2018-05-14T11:03:18.570Z,22.20
2018-05-14T11:05:44.679Z,22.30
2018-05-14T11:08:10.789Z,22.30
2018-05-14T11:10:37.680Z,22.20
2018-05-14T11:13:03.824Z,22.20
2018-05-14T11:15:29.945Z,22.30
2018-05-14T11:17:56.058Z,23.00
2018-05-14T11:20:22.153Z,23.50
2018-05-14T11:22:48.266Z,23.40
2018-05-14T11:25:14.395Z,23.10
2018-05-14T11:27:40.551Z,22.70
2018-05-14T11:30:06.613Z,22.70
2018-05-14T11:32:32.730Z,22.80
2018-05-14T11:34:58.860Z,22.70
2018-05-14T11:37:24.981Z,22.70
2018-05-14T11:39:51.110Z,22.70
2018-05-14T11:42:17.197Z,23.00
2018-05-14T11:44:43.290Z,23.20
2018-05-14T11:47:09.408Z,23.20
2018-05-14T11:49:36.262Z,23.00
2018-05-14T11:52:02.367Z,23.00
2018-05-14T11:54:28.482Z,23.20
2018-05-14T11:56:54.601Z,23.50
2018-05-14T11:59:20.707Z,24.00
2018-05-14T12:01:46.830Z,24.30
2018-05-14T12:04:12.918Z,24.20
2018-05-14T12:06:39.024Z,24.40
2018-05-14T12:09:05.131Z,24.40
2018-05-14T12:11:31.233Z,24.70
2018-05-14T12:13:57.353Z,25.20
2018-05-14T12:16:23.507Z,25.40
2018-05-14T12:18:49.545Z,25.40
2018-05-14T12:21:15.633Z,25.40
2018-05-14T12:23:41.751Z,25.80
2018-05-14T12:26:07.847Z,25.50
2018-05-14T12:28:34.693Z,25.70
2018-05-14T12:31:00.772Z,25.70
2018-05-14T12:33:26.881Z,25.80
2018-05-14T12:35:53.754Z,25.70
2018-05-14T12:38:19.837Z,25.70
2018-05-14T12:40:45.953Z,25.70
2018-05-14T12:43:12.004Z,25.70
2018-05-14T12:45:38.049Z,25.80
2018-05-14T12:48:04.141Z,26.00
2018-05-14T12:50:30.245Z,26.00
2018-05-14T12:52:56.311Z,26.00
2018-05-14T12:55:22.381Z,26.00
2018-05-14T12:57:48.457Z,26.00
2018-05-14T13:00:14.501Z,26.00
2018-05-14T13:02:40.573Z,25.70
2018-05-14T13:05:06.633Z,25.10
2018-05-14T13:07:32.686Z,24.10
2018-05-14T13:09:58.794Z,22.60
2018-05-14T13:12:24.861Z,21.90
2018-05-14T13:14:50.922Z,21.50
2018-05-14T13:17:17.043Z,21.20
2018-05-14T13:19:43.174Z,21.10
2018-05-14T13:22:09.261Z,21.00
2018-05-14T13:24:36.131Z,20.80
2018-05-14T13:27:02.239Z,20.80
2018-05-14T13:29:29.077Z,20.80
2018-05-14T13:31:55.191Z,20.70
2018-05-14T13:34:21.314Z,20.70
2018-05-14T13:36:47.430Z,20.70
2018-05-14T13:39:13.517Z,20.70
2018-05-14T13:41:39.581Z,20.70
2018-05-14T13:44:05.773Z,20.60
2018-05-14T13:46:31.837Z,20.50
2018-05-14T13:48:57.900Z,20.50
2018-05-14T13:51:24.812Z,20.60
2018-05-14T13:53:50.903Z,20.60
2018-05-14T13:56:17.742Z,20.70
2018-05-14T13:58:43.907Z,20.70
2018-05-14T14:01:10.001Z,20.50
2018-05-14T14:03:36.077Z,20.60
2018-05-14T14:06:02.918Z,20.90
2018-05-14T14:08:29.726Z,21.10
2018-05-14T14:10:55.830Z,21.00
2018-05-14T14:13:21.906Z,21.50
2018-05-14T14:15:47.973Z,21.60
2018-05-14T14:18:14.066Z,22.10
2018-05-14T14:20:40.125Z,22.70
2018-05-14T14:23:06.325Z,23.40
2018-05-14T14:25:32.287Z,24.00
2018-05-14T14:27:58.386Z,24.90
2018-05-14T14:30:25.193Z,26.10
2018-05-14T14:32:51.263Z,26.10
2018-05-14T14:35:17.381Z,27.00
2018-05-14T14:37:43.437Z,27.80
2018-05-14T14:40:09.513Z,28.10
2018-05-14T14:42:35.593Z,29.10
2018-05-14T14:45:01.702Z,29.40
2018-05-14T14:47:27.809Z,29.80
2018-05-14T14:49:53.905Z,29.70
2018-05-14T14:52:19.973Z,30.80
2018-05-14T14:54:46.846Z,31.60
2018-05-14T14:57:13.675Z,32.20
2018-05-14T14:59:39.734Z,32.10
2018-05-14T15:02:06.541Z,31.30
2018-05-14T15:04:32.605Z,31.40
2018-05-14T15:06:58.797Z,30.60
2018-05-14T15:09:24.781Z,29.80
2018-05-14T15:11:50.854Z,28.90
2018-05-14T15:14:16.954Z,29.00
2018-05-14T15:16:43.042Z,28.30
2018-05-14T15:19:09.129Z,27.30
2018-05-14T15:21:35.220Z,27.00
2018-05-14T15:24:01.343Z,28.70
2018-05-14T15:26:27.451Z,30.00
2018-05-14T15:28:53.529Z,31.10
2018-05-14T15:31:19.633Z,32.30
2018-05-14T15:33:46.449Z,30.70
2018-05-14T15:36:12.507Z,30.70
2018-05-14T15:38:38.589Z,29.20
2018-05-14T15:41:04.641Z,28.10
2018-05-14T15:43:30.730Z,27.10
2018-05-14T15:45:56.794Z,26.50
2018-05-14T15:48:22.877Z,25.50
2018-05-14T15:50:48.994Z,24.90
2018-05-14T15:53:15.107Z,24.40
2018-05-14T15:55:41.262Z,23.40
2018-05-14T15:58:07.407Z,22.80
2018-05-14T16:00:33.485Z,22.40
2018-05-14T16:02:59.590Z,22.00
2018-05-14T16:05:25.706Z,21.70
2018-05-14T16:07:51.842Z,21.50
2018-05-14T16:10:17.942Z,21.60
2018-05-14T16:12:44.066Z,22.60
2018-05-14T16:15:10.150Z,24.10
2018-05-14T16:17:36.290Z,25.20
2018-05-14T16:20:02.370Z,24.60
2018-05-14T16:22:28.429Z,23.80
2018-05-14T16:24:54.540Z,23.20
2018-05-14T16:27:20.617Z,22.30
2018-05-14T16:29:46.670Z,21.90
2018-05-14T16:32:12.769Z,21.80
2018-05-14T16:34:38.842Z,21.80
2018-05-14T16:37:05.673Z,21.70
2018-05-14T16:39:31.890Z,21.70
2018-05-14T16:41:58.081Z,21.60
2018-05-14T16:44:24.159Z,22.50
2018-05-14T16:46:50.263Z,23.90
2018-05-14T16:49:16.426Z,25.20
2018-05-14T16:51:42.558Z,26.30
2018-05-14T16:54:08.669Z,26.30
2018-05-14T16:56:35.501Z,26.40
2018-05-14T16:59:01.637Z,26.40
2018-05-14T17:01:27.757Z,26.80
2018-05-14T17:03:53.901Z,28.00
2018-05-14T17:06:20.058Z,28.10
2018-05-14T17:08:46.149Z,27.50
2018-05-14T17:11:12.246Z,26.80
2018-05-14T17:13:38.354Z,26.40
2018-05-14T17:16:04.460Z,25.60
2018-05-14T17:18:30.626Z,25.10
2018-05-14T17:20:56.826Z,24.50
2018-05-14T17:23:23.782Z,23.90
2018-05-14T17:25:50.669Z,23.00
2018-05-14T17:28:16.733Z,23.00
2018-05-14T17:30:42.848Z,22.60
2018-05-14T17:33:08.921Z,22.00
2018-05-14T17:35:35.143Z,21.90
2018-05-14T17:38:01.254Z,21.80
2018-05-14T17:40:27.408Z,21.80
2018-05-14T17:42:53.641Z,21.80
2018-05-14T17:45:20.473Z,21.80
2018-05-14T17:47:46.529Z,21.70
2018-05-14T17:50:12.681Z,21.60
2018-05-14T17:52:38.769Z,21.30
2018-05-14T17:55:05.641Z,20.80
2018-05-14T17:57:32.466Z,20.60
2018-05-14T17:59:58.625Z,20.60
2018-05-14T18:02:25.623Z,20.90
2018-05-14T18:04:51.723Z,20.90
2018-05-14T18:07:18.532Z,21.10
2018-05-14T18:09:44.645Z,21.10
2018-05-14T18:12:10.766Z,21.30
2018-05-14T18:14:36.941Z,21.40
2018-05-14T18:17:03.077Z,22.00
2018-05-14T18:19:35.381Z,22.40
2018-05-14T18:22:07.677Z,22.40
2018-05-14T18:24:33.866Z,22.50
2018-05-14T18:27:00.062Z,22.20
2018-05-14T18:29:29.957Z,21.80
2018-05-14T18:31:56.069Z,21.40
2018-05-14T18:34:28.517Z,21.10
2018-05-14T18:36:54.677Z,20.90
2018-05-14T18:39:21.482Z,20.30
2018-05-14T18:41:47.569Z,20.20
2018-05-14T18:44:14.430Z,19.70
2018-05-14T18:46:41.232Z,19.60
2018-05-14T18:49:07.426Z,19.50
2018-05-14T18:51:34.306Z,19.50
2018-05-14T18:54:00.401Z,19.40
2018-05-14T18:56:26.585Z,19.40
2018-05-14T18:58:52.697Z,19.30
2018-05-14T19:01:18.860Z,19.30
2018-05-14T19:03:44.930Z,19.30
2018-05-14T19:06:11.009Z,19.20
2018-05-14T19:08:37.840Z,18.90
2018-05-14T19:11:10.095Z,18.90
2018-05-14T19:13:36.172Z,18.90
2018-05-14T19:16:09.218Z,18.70
2018-05-14T19:18:35.372Z,18.70
2018-05-14T19:21:01.367Z,18.60
2018-05-14T19:23:33.570Z,18.60
2018-05-14T19:25:59.640Z,18.50
2018-05-14T19:28:31.930Z,18.50
2018-05-14T19:30:58.006Z,18.50
2018-05-14T19:33:30.170Z,18.50
2018-05-14T19:35:57.080Z,18.30
2018-05-14T19:38:23.116Z,18.40
2018-05-14T19:40:51.110Z,18.30
2018-05-14T19:43:17.202Z,18.30
2018-05-14T19:45:43.334Z,18.30
2018-05-14T19:48:09.493Z,18.30
2018-05-14T19:50:35.619Z,18.30
2018-05-14T19:53:01.700Z,18.20
2018-05-14T19:55:27.818Z,18.20
2018-05-14T19:57:53.908Z,18.30
2018-05-14T20:00:20.773Z,18.00
2018-05-14T20:02:47.709Z,17.90
2018-05-14T20:05:13.811Z,17.90
2018-05-14T20:07:39.929Z,17.80
2018-05-14T20:10:06.034Z,17.90
2018-05-14T20:12:32.155Z,17.80
2018-05-14T20:14:58.287Z,17.90
2018-05-14T20:17:24.382Z,17.90
2018-05-14T20:19:50.544Z,17.90
2018-05-14T20:22:16.621Z,17.90
2018-05-14T20:24:42.838Z,17.90
2018-05-14T20:27:09.051Z,17.90
2018-05-14T20:29:35.230Z,17.80
2018-05-14T20:32:01.342Z,17.60
2018-05-14T20:34:27.450Z,17.50
2018-05-14T20:36:54.330Z,17.30
2018-05-14T20:39:20.453Z,17.30
2018-05-14T20:41:46.553Z,17.30
2018-05-14T20:44:12.687Z,17.20
2018-05-14T20:46:38.860Z,17.10
2018-05-14T20:49:05.709Z,17.30
2018-05-14T20:51:32.597Z,17.20
2018-05-14T20:53:58.706Z,17.20
2018-05-14T20:56:25.550Z,17.00
2018-05-14T20:58:52.458Z,17.00
2018-05-14T21:01:18.579Z,17.00
2018-05-14T21:03:44.750Z,17.00
2018-05-14T21:06:10.838Z,16.80
2018-05-14T21:08:37.654Z,16.50
2018-05-14T21:11:03.773Z,16.50
2018-05-14T21:13:29.901Z,16.50
2018-05-14T21:15:56.096Z,16.40
2018-05-14T21:18:22.206Z,16.30
2018-05-14T21:20:48.317Z,16.30
2018-05-14T21:23:14.409Z,16.20
2018-05-14T21:25:40.648Z,16.20
2018-05-14T21:28:06.749Z,16.10
2018-05-14T21:30:32.834Z,16.00
2018-05-14T21:32:59.750Z,15.90
2018-05-14T21:35:25.827Z,15.90
2018-05-14T21:37:52.678Z,15.90
2018-05-14T21:40:19.502Z,15.80
2018-05-14T21:42:45.629Z,15.80
2018-05-14T21:45:11.753Z,15.80
2018-05-14T21:47:37.885Z,15.60
2018-05-14T21:50:03.997Z,15.50
2018-05-14T21:52:30.947Z,15.30
2018-05-14T21:54:57.898Z,15.20
2018-05-14T21:57:24.020Z,15.20
2018-05-14T21:59:50.114Z,15.20
2018-05-14T22:02:16.282Z,15.20
2018-05-14T22:04:42.422Z,15.10
2018-05-14T22:07:08.539Z,15.20
2018-05-14T22:09:34.621Z,15.10
2018-05-14T22:12:00.801Z,15.20
2018-05-14T22:14:26.945Z,15.20
2018-05-14T22:16:53.065Z,15.20
2018-05-14T22:19:19.932Z,15.20
2018-05-14T22:21:46.054Z,15.20
2018-05-14T22:24:12.933Z,15.20
2018-05-14T22:26:39.136Z,15.20
2018-05-14T22:29:05.212Z,15.20
2018-05-14T22:31:31.353Z,15.30
2018-05-14T22:33:57.527Z,15.30
2018-05-14T22:36:24.303Z,15.20
2018-05-14T22:38:50.412Z,15.20
2018-05-14T22:41:16.497Z,15.20
2018-05-14T22:43:42.725Z,15.20
2018-05-14T22:46:08.995Z,15.10
2018-05-14T22:48:35.085Z,15.00
2018-05-14T22:51:01.241Z,14.90
2018-05-14T22:53:27.363Z,14.80
2018-05-14T22:55:53.477Z,14.70
2018-05-14T22:58:19.627Z,14.60
2018-05-14T23:00:45.761Z,14.50
2018-05-14T23:03:11.933Z,14.40
2018-05-14T23:05:38.829Z,14.30
2018-05-14T23:08:04.994Z,14.20
2018-05-14T23:10:31.121Z,14.10
2018-05-14T23:12:57.238Z,14.10
2018-05-14T23:15:23.365Z,14.00
2018-05-14T23:17:50.222Z,13.80
2018-05-14T23:20:17.041Z,13.70
2018-05-14T23:22:43.150Z,13.60
2018-05-14T23:25:09.231Z,13.60
2018-05-14T23:27:35.357Z,13.40
2018-05-14T23:30:01.459Z,13.30
2018-05-14T23:32:27.647Z,13.20
2018-05-14T23:34:53.845Z,13.10
2018-05-14T23:37:19.929Z,13.00
2018-05-14T23:39:46.062Z,12.90
2018-05-14T23:42:12.155Z,12.80
2018-05-14T23:44:38.309Z,12.80
2018-05-14T23:47:04.413Z,12.70
2018-05-14T23:49:30.668Z,12.60
2018-05-14T23:51:56.757Z,12.60
2018-05-14T23:54:22.845Z,12.50
2018-05-14T23:56:49.012Z,12.40
2018-05-14T23:59:15.092Z,12.40
